createdAt,value
2018-11-03T00:04:25.410Z,3.80
2018-11-03T00:06:53.924Z,3.70
2018-11-03T00:09:22.419Z,3.70
2018-11-03T00:11:50.968Z,3.70
2018-11-03T00:14:19.476Z,3.70
2018-11-03T00:16:47.995Z,3.70
2018-11-03T00:19:16.479Z,3.70
2018-11-03T00:21:44.946Z,3.70
2018-11-03T00:24:13.481Z,3.70
2018-11-03T00:26:42.088Z,3.80
2018-11-03T00:29:10.563Z,3.90
2018-11-03T00:31:39.072Z,3.90
2018-11-03T00:34:07.687Z,3.90
2018-11-03T00:36:36.199Z,3.90
2018-11-03T00:39:07.888Z,4.00
2018-11-03T00:41:36.350Z,4.00
2018-11-03T00:44:05.397Z,3.90
2018-11-03T00:46:34.013Z,3.90
2018-11-03T00:49:02.850Z,4.00
2018-11-03T00:51:31.333Z,4.00
2018-11-03T00:53:59.831Z,4.10
2018-11-03T00:56:28.326Z,4.10
2018-11-03T00:58:57.097Z,4.10
2018-11-03T01:01:25.569Z,4.20
2018-11-03T01:03:54.150Z,4.20
2018-11-03T01:06:22.620Z,4.30
2018-11-03T01:08:51.152Z,4.40
2018-11-03T01:11:19.619Z,4.40
2018-11-03T01:13:48.129Z,4.40
2018-11-03T01:16:16.592Z,4.40
2018-11-03T01:18:45.058Z,4.40
2018-11-03T01:21:13.521Z,4.30
2018-11-03T01:23:42.028Z,4.40
2018-11-03T01:26:10.439Z,4.30
2018-11-03T01:28:38.904Z,4.30
2018-11-03T01:31:07.355Z,4.30
2018-11-03T01:33:35.808Z,4.20
2018-11-03T01:36:04.285Z,4.20
2018-11-03T01:38:32.744Z,4.10
2018-11-03T01:41:01.225Z,4.10
2018-11-03T01:43:29.688Z,4.10
2018-11-03T01:45:58.166Z,4.00
2018-11-03T01:48:26.624Z,3.90
2018-11-03T01:50:55.087Z,4.00
2018-11-03T01:53:23.539Z,4.00
2018-11-03T01:55:51.999Z,3.90
2018-11-03T01:58:20.469Z,4.00
2018-11-03T02:00:48.941Z,3.90
2018-11-03T02:03:17.428Z,3.90
2018-11-03T02:05:45.945Z,3.80
2018-11-03T02:08:14.414Z,3.80
2018-11-03T02:10:42.931Z,3.80
2018-11-03T02:13:11.373Z,3.80
2018-11-03T02:15:39.877Z,3.70
2018-11-03T02:18:08.310Z,3.70
2018-11-03T02:20:36.758Z,3.60
2018-11-03T02:23:05.254Z,3.70
2018-11-03T02:25:33.744Z,3.70
2018-11-03T02:28:02.177Z,3.70
2018-11-03T02:30:30.636Z,3.70
2018-11-03T02:32:59.151Z,3.70
2018-11-03T02:35:27.572Z,3.70
2018-11-03T02:37:56.045Z,3.60
2018-11-03T02:40:24.496Z,3.60
2018-11-03T02:42:52.936Z,3.50
2018-11-03T02:45:21.438Z,3.60
2018-11-03T02:47:49.897Z,3.60
2018-11-03T02:50:18.374Z,3.60
2018-11-03T02:52:46.970Z,3.60
2018-11-03T02:55:15.409Z,3.60
2018-11-03T02:57:43.874Z,3.60
2018-11-03T03:00:12.551Z,3.60
2018-11-03T03:02:41.004Z,3.50
2018-11-03T03:05:10.435Z,3.50
2018-11-03T03:07:38.897Z,3.50
2018-11-03T03:10:08.829Z,3.50
2018-11-03T03:12:37.447Z,3.50
2018-11-03T03:15:07.192Z,3.40
2018-11-03T03:17:35.681Z,3.40
2018-11-03T03:20:04.555Z,3.40
2018-11-03T03:22:33.022Z,3.40
2018-11-03T03:25:01.468Z,3.40
2018-11-03T03:27:29.900Z,3.40
2018-11-03T03:29:58.336Z,3.40
2018-11-03T03:32:26.817Z,3.40
2018-11-03T03:34:56.297Z,3.30
2018-11-03T03:37:24.865Z,3.30
2018-11-03T03:39:53.330Z,3.40
2018-11-03T03:42:22.073Z,3.30
2018-11-03T03:44:50.638Z,3.30
2018-11-03T03:47:19.156Z,3.30
2018-11-03T03:49:47.585Z,3.30
2018-11-03T03:52:16.070Z,3.30
2018-11-03T03:54:44.509Z,3.30
2018-11-03T03:57:12.972Z,3.30
2018-11-03T03:59:41.454Z,3.30
2018-11-03T04:02:09.913Z,3.30
2018-11-03T04:04:38.403Z,3.20
2018-11-03T04:07:07.172Z,3.20
2018-11-03T04:09:35.658Z,3.20
2018-11-03T04:12:04.156Z,3.20
2018-11-03T04:14:32.614Z,3.30
2018-11-03T04:17:01.067Z,3.20
2018-11-03T04:19:29.632Z,3.20
2018-11-03T04:21:58.158Z,3.20
2018-11-03T04:24:26.625Z,3.20
2018-11-03T04:26:55.118Z,3.20
2018-11-03T04:29:23.669Z,3.20
2018-11-03T04:31:52.148Z,3.20
2018-11-03T04:34:20.629Z,3.20
2018-11-03T04:36:49.080Z,3.20
2018-11-03T04:39:17.532Z,3.20
2018-11-03T04:41:46.032Z,3.10
2018-11-03T04:44:14.473Z,3.10
2018-11-03T04:46:42.916Z,3.10
2018-11-03T04:49:11.829Z,3.10
2018-11-03T04:51:40.300Z,3.10
2018-11-03T04:54:08.774Z,3.10
2018-11-03T04:56:37.262Z,3.00
2018-11-03T04:59:06.060Z,3.10
2018-11-03T05:01:34.663Z,3.10
2018-11-03T05:04:03.116Z,3.10
2018-11-03T05:06:31.583Z,3.10
2018-11-03T05:09:00.040Z,3.10
2018-11-03T05:11:28.478Z,3.10
2018-11-03T05:13:56.939Z,3.00
2018-11-03T05:16:25.400Z,3.00
2018-11-03T05:18:53.898Z,3.00
2018-11-03T05:21:22.347Z,3.00
2018-11-03T05:23:50.827Z,3.10
2018-11-03T05:26:19.305Z,3.10
2018-11-03T05:28:47.781Z,3.10
2018-11-03T05:31:16.499Z,3.10
2018-11-03T05:33:45.010Z,3.10
2018-11-03T05:36:13.459Z,3.10
2018-11-03T05:38:41.990Z,3.10
2018-11-03T05:41:10.466Z,3.20
2018-11-03T05:43:38.939Z,3.10
2018-11-03T05:46:07.439Z,3.10
2018-11-03T05:48:35.962Z,3.10
2018-11-03T05:51:04.408Z,3.10
2018-11-03T05:53:32.865Z,3.10
2018-11-03T05:56:01.346Z,3.10
2018-11-03T05:58:29.818Z,3.10
2018-11-03T06:00:58.304Z,3.10
2018-11-03T06:03:26.779Z,3.10
2018-11-03T06:05:55.944Z,3.10
2018-11-03T06:08:24.451Z,3.20
2018-11-03T06:10:52.948Z,3.20
2018-11-03T06:13:21.421Z,3.20
2018-11-03T06:15:49.886Z,3.30
2018-11-03T06:18:18.371Z,3.30
2018-11-03T06:20:46.863Z,3.30
2018-11-03T06:23:15.322Z,3.30
2018-11-03T06:25:43.772Z,3.30
2018-11-03T06:28:12.265Z,3.20
2018-11-03T06:30:40.702Z,3.20
2018-11-03T06:33:09.191Z,3.30
2018-11-03T06:35:37.666Z,3.30
2018-11-03T06:38:06.458Z,3.20
2018-11-03T06:40:35.058Z,3.20
2018-11-03T06:43:03.513Z,3.20
2018-11-03T06:45:31.972Z,3.30
2018-11-03T06:48:00.645Z,3.20
2018-11-03T06:50:29.094Z,3.30
2018-11-03T06:52:57.593Z,3.20
2018-11-03T06:55:26.046Z,3.30
2018-11-03T06:57:54.510Z,3.30
2018-11-03T07:00:23.495Z,3.30
2018-11-03T07:02:51.967Z,3.30
2018-11-03T07:05:20.557Z,3.40
2018-11-03T07:07:48.990Z,3.40
2018-11-03T07:10:17.537Z,3.40
2018-11-03T07:12:46.123Z,3.40
2018-11-03T07:15:14.490Z,3.40
2018-11-03T07:17:42.994Z,3.40
2018-11-03T07:20:12.596Z,3.50
2018-11-03T07:22:41.529Z,3.50
2018-11-03T07:25:10.427Z,3.60
2018-11-03T07:27:38.906Z,3.70
2018-11-03T07:30:09.871Z,3.70
2018-11-03T07:32:38.405Z,3.80
2018-11-03T07:35:07.210Z,3.90
2018-11-03T07:37:35.782Z,4.00
2018-11-03T07:40:05.426Z,4.00
2018-11-03T07:42:33.909Z,4.10
2018-11-03T07:45:02.356Z,4.10
2018-11-03T07:47:30.901Z,4.20
2018-11-03T07:49:59.362Z,4.30
2018-11-03T07:52:28.754Z,4.30
2018-11-03T07:54:57.319Z,4.40
2018-11-03T07:57:25.769Z,4.50
2018-11-03T07:59:54.334Z,4.60
2018-11-03T08:02:22.826Z,4.70
2018-11-03T08:04:51.280Z,4.70
2018-11-03T08:07:19.764Z,4.90
2018-11-03T08:09:48.291Z,4.90
2018-11-03T08:12:16.734Z,5.10
2018-11-03T08:14:45.215Z,5.20
2018-11-03T08:17:13.809Z,5.30
2018-11-03T08:19:42.262Z,5.40
2018-11-03T08:22:10.704Z,5.40
2018-11-03T08:24:39.186Z,5.50
2018-11-03T08:27:07.637Z,5.60
2018-11-03T08:29:36.103Z,5.70
2018-11-03T08:32:04.712Z,5.70
2018-11-03T08:34:33.289Z,6.00
2018-11-03T08:37:01.805Z,6.00
2018-11-03T08:39:30.327Z,6.10
2018-11-03T08:41:58.724Z,6.20
2018-11-03T08:44:27.169Z,6.30
2018-11-03T08:46:55.697Z,6.40
2018-11-03T08:49:24.206Z,6.50
2018-11-03T08:51:52.665Z,6.60
2018-11-03T08:54:21.198Z,6.70
2018-11-03T08:56:49.683Z,6.80
2018-11-03T08:59:18.314Z,6.80
2018-11-03T09:01:46.773Z,6.90
2018-11-03T09:04:15.342Z,6.90
2018-11-03T09:06:43.861Z,7.00
2018-11-03T09:09:12.376Z,7.00
2018-11-03T09:11:40.816Z,7.10
2018-11-03T09:14:09.314Z,7.20
2018-11-03T09:16:37.715Z,7.40
2018-11-03T09:19:06.382Z,7.50
2018-11-03T09:21:35.010Z,7.70
2018-11-03T09:24:03.463Z,7.90
2018-11-03T09:26:32.039Z,8.10
2018-11-03T09:29:00.530Z,8.30
2018-11-03T09:31:29.009Z,8.50
2018-11-03T09:33:57.475Z,8.70
2018-11-03T09:36:26.294Z,8.80
2018-11-03T09:38:55.001Z,8.80
2018-11-03T09:41:23.375Z,9.00
2018-11-03T09:43:52.019Z,9.00
2018-11-03T09:46:20.519Z,9.30
2018-11-03T09:48:49.024Z,9.30
2018-11-03T09:51:17.638Z,9.40
2018-11-03T09:53:46.131Z,9.60
2018-11-03T09:56:14.689Z,9.70
2018-11-03T09:58:43.188Z,9.80
2018-11-03T10:01:11.627Z,10.10
2018-11-03T10:03:40.112Z,10.20
2018-11-03T10:06:08.629Z,10.40
2018-11-03T10:08:37.414Z,10.50
2018-11-03T10:11:05.985Z,10.60
2018-11-03T10:13:34.432Z,10.60
2018-11-03T10:16:02.987Z,10.50
2018-11-03T10:18:31.444Z,10.40
2018-11-03T10:21:00.045Z,10.20
2018-11-03T10:23:28.492Z,10.10
2018-11-03T10:25:56.933Z,10.00
2018-11-03T10:28:25.396Z,10.00
2018-11-03T10:30:53.847Z,10.00
2018-11-03T10:33:22.348Z,10.10
2018-11-03T10:35:50.780Z,10.20
2018-11-03T10:38:19.232Z,10.30
2018-11-03T10:40:47.800Z,10.30
2018-11-03T10:43:16.298Z,10.20
2018-11-03T10:45:44.805Z,10.20
2018-11-03T10:48:13.288Z,10.30
2018-11-03T10:50:41.933Z,10.40
2018-11-03T11:12:46.297Z,10.40
2018-11-03T11:15:14.798Z,10.50
2018-11-03T11:17:43.337Z,10.70
2018-11-03T11:20:11.871Z,10.70
2018-11-03T11:22:40.344Z,10.70
2018-11-03T11:25:10.373Z,10.80
2018-11-03T11:27:38.804Z,10.80
2018-11-03T11:30:09.615Z,10.80
2018-11-03T11:32:38.151Z,10.80
2018-11-03T11:35:06.985Z,10.90
2018-11-03T11:37:35.755Z,11.10
2018-11-03T11:40:04.682Z,11.10
2018-11-03T11:42:33.591Z,11.10
2018-11-03T11:45:02.338Z,11.00
2018-11-03T11:47:30.822Z,10.90
2018-11-03T11:49:59.290Z,10.90
2018-11-03T11:52:27.764Z,10.90
2018-11-03T11:54:56.325Z,10.80
2018-11-03T11:57:24.702Z,10.70
2018-11-03T11:59:53.218Z,10.70
2018-11-03T12:02:21.730Z,10.70
2018-11-03T12:04:50.178Z,10.70
2018-11-03T12:07:18.659Z,10.70
2018-11-03T12:09:47.260Z,10.70
2018-11-03T12:12:15.805Z,10.70
2018-11-03T12:14:44.273Z,10.70
2018-11-03T12:17:12.749Z,10.60
2018-11-03T12:19:41.203Z,10.50
2018-11-03T12:22:09.655Z,10.50
2018-11-03T15:42:46.589Z,8.70
2018-11-03T15:45:16.441Z,8.70
2018-11-03T15:47:45.538Z,8.70
2018-11-03T15:50:14.838Z,8.60
2018-11-03T15:52:43.897Z,8.60
2018-11-03T15:55:12.538Z,8.60
2018-11-03T15:57:41.012Z,8.50
2018-11-03T16:03:30.883Z,8.40
2018-11-03T16:05:59.420Z,8.40
2018-11-03T16:08:31.806Z,8.40
2018-11-03T16:11:00.298Z,8.30
2018-11-03T16:16:50.298Z,8.30
2018-11-03T16:19:18.876Z,8.30
2018-11-03T16:21:47.394Z,8.20
2018-11-03T16:24:15.882Z,8.20
2018-11-03T16:26:44.437Z,8.30
2018-11-03T16:29:12.893Z,8.20
2018-11-03T16:31:41.396Z,8.20
2018-11-03T16:34:10.023Z,8.10
2018-11-03T16:36:38.570Z,8.10
2018-11-03T16:39:09.632Z,8.10
2018-11-03T16:41:38.130Z,8.10
2018-11-03T16:44:06.975Z,8.10
2018-11-03T16:46:35.586Z,8.10
2018-11-03T16:49:04.094Z,8.00
2018-11-03T16:51:32.552Z,8.00
2018-11-03T16:54:01.056Z,8.00
2018-11-03T16:56:29.590Z,7.90
2018-11-03T16:58:58.037Z,7.90
2018-11-03T17:01:26.533Z,7.90
2018-11-03T17:03:55.061Z,7.90
2018-11-03T17:06:23.551Z,7.90
2018-11-03T17:08:52.037Z,7.90
2018-11-03T17:11:21.253Z,7.80
2018-11-03T17:13:49.777Z,7.80
2018-11-03T17:16:18.285Z,7.70
2018-11-03T17:18:48.263Z,7.70
2018-11-03T17:21:16.731Z,7.70
2018-11-03T17:23:45.349Z,7.80
2018-11-03T17:26:13.884Z,7.80
2018-11-03T17:28:42.362Z,7.70
2018-11-03T17:31:10.985Z,7.70
2018-11-03T17:33:39.443Z,7.60
2018-11-03T17:36:07.910Z,7.60
2018-11-03T17:38:36.359Z,7.60
2018-11-03T17:41:05.106Z,7.50
2018-11-03T17:43:33.716Z,7.50
2018-11-03T17:46:02.293Z,7.50
2018-11-03T17:48:31.915Z,7.50
2018-11-03T17:51:00.622Z,7.60
2018-11-03T17:53:29.076Z,7.50
2018-11-03T17:55:57.553Z,7.50
2018-11-03T17:58:26.021Z,7.50
2018-11-03T18:00:55.236Z,7.50
2018-11-03T18:03:23.484Z,7.50
2018-11-03T18:12:35.836Z,7.50
2018-11-03T18:15:04.301Z,7.40
2018-11-03T18:17:32.792Z,7.40
2018-11-03T18:20:01.226Z,7.30
2018-11-03T18:25:51.185Z,7.30
2018-11-03T18:28:19.681Z,7.20
2018-11-03T18:30:48.219Z,7.10
2018-11-03T18:33:16.718Z,7.10
2018-11-03T18:35:45.353Z,7.00
2018-11-03T18:38:13.980Z,7.00
2018-11-03T18:40:42.455Z,6.90
2018-11-03T18:43:10.929Z,7.00
2018-11-03T18:45:39.447Z,6.90
2018-11-03T18:48:07.964Z,6.90
2018-11-03T18:50:39.626Z,6.80
2018-11-03T18:53:08.108Z,6.80
2018-11-03T18:55:36.761Z,6.80
2018-11-03T18:58:05.318Z,6.70
2018-11-03T19:00:33.769Z,6.70
2018-11-03T19:03:02.380Z,6.60
2018-11-03T19:05:31.473Z,6.50
2018-11-03T19:08:00.011Z,6.50
2018-11-03T19:10:29.141Z,6.50
2018-11-03T19:12:58.006Z,6.50
2018-11-03T19:15:27.261Z,6.40
2018-11-03T19:17:55.764Z,6.40
2018-11-03T19:20:24.654Z,6.30
2018-11-03T19:22:53.178Z,6.40
2018-11-03T19:25:21.633Z,6.40
2018-11-03T19:27:50.105Z,6.30
2018-11-03T19:30:18.953Z,6.30
2018-11-03T19:32:49.312Z,6.30
2018-11-03T19:35:17.781Z,6.30
2018-11-03T19:37:46.248Z,6.30
2018-11-03T19:40:15.029Z,6.30
2018-11-03T19:42:43.632Z,6.20
2018-11-03T19:45:15.196Z,6.20
2018-11-03T19:47:43.629Z,6.10
2018-11-03T19:50:12.584Z,6.10
2018-11-03T19:52:41.859Z,6.10
2018-11-03T19:55:10.356Z,6.10
2018-11-03T19:57:38.890Z,6.00
2018-11-03T20:00:10.013Z,6.00
2018-11-03T20:02:39.312Z,5.90
2018-11-03T20:05:08.677Z,5.90
2018-11-03T20:07:37.264Z,5.80
2018-11-03T20:10:07.352Z,5.70
2018-11-03T20:12:35.961Z,5.70
2018-11-03T20:15:05.863Z,5.60
2018-11-03T20:17:34.372Z,5.50
2018-11-03T20:20:03.043Z,5.50
2018-11-03T20:22:32.154Z,5.50
2018-11-03T20:25:01.837Z,5.40
2018-11-03T20:27:30.276Z,5.40
2018-11-03T20:29:58.734Z,5.40
2018-11-03T20:32:30.841Z,5.40
2018-11-03T20:34:59.317Z,5.30
2018-11-03T20:37:27.801Z,5.30
2018-11-03T20:39:56.368Z,5.30
2018-11-03T20:42:24.849Z,5.30
2018-11-03T20:44:53.464Z,5.20
2018-11-03T20:47:22.106Z,5.30
2018-11-03T20:49:50.969Z,5.20
2018-11-03T20:52:19.389Z,5.30
2018-11-03T20:54:49.269Z,5.30
2018-11-03T20:57:17.730Z,5.30
2018-11-03T20:59:46.239Z,5.40
2018-11-03T21:02:14.753Z,5.30
2018-11-03T21:04:43.209Z,5.30
2018-11-03T21:07:11.706Z,5.30
2018-11-03T21:09:40.188Z,5.20
2018-11-03T21:12:08.695Z,5.20
2018-11-03T21:14:40.966Z,5.20
2018-11-03T21:17:09.403Z,5.20
2018-11-03T21:19:37.897Z,5.20
2018-11-03T21:22:09.147Z,5.10
2018-11-03T21:24:38.168Z,5.10
2018-11-03T21:27:07.986Z,5.10
2018-11-03T21:29:36.464Z,5.10
2018-11-03T21:32:05.448Z,5.10
2018-11-03T21:34:33.981Z,5.10
2018-11-03T21:37:02.618Z,5.10
2018-11-03T21:39:31.128Z,5.10
2018-11-03T21:42:03.605Z,5.20
2018-11-03T21:44:32.208Z,5.20
2018-11-03T21:47:00.732Z,5.20
2018-11-03T21:49:29.170Z,5.30
2018-11-03T21:51:57.628Z,5.30
2018-11-03T21:54:26.210Z,5.30
2018-11-03T21:56:54.850Z,5.30
2018-11-03T21:59:23.313Z,5.30
2018-11-03T22:01:51.775Z,5.30
2018-11-03T22:04:20.496Z,5.30
2018-11-03T22:06:48.960Z,5.30
2018-11-03T22:09:17.405Z,5.30
2018-11-03T22:11:58.631Z,5.20
2018-11-03T22:14:27.461Z,5.20
2018-11-03T22:16:55.936Z,5.10
2018-11-03T22:19:24.422Z,5.00
2018-11-03T22:21:52.964Z,5.00
2018-11-03T22:24:21.332Z,5.00
2018-11-03T22:26:49.837Z,5.00
2018-11-03T22:29:18.336Z,5.00
2018-11-03T22:31:46.912Z,4.90
2018-11-03T22:34:15.436Z,5.00
2018-11-03T22:36:43.945Z,5.00
2018-11-03T22:39:12.881Z,4.90
2018-11-03T22:41:41.503Z,4.90
2018-11-03T22:44:10.450Z,4.90
2018-11-03T22:46:38.974Z,4.90
2018-11-03T22:49:07.492Z,4.90
2018-11-03T22:51:36.046Z,4.90
2018-11-03T22:54:04.812Z,4.90
2018-11-03T22:56:33.359Z,4.90
2018-11-03T22:59:01.829Z,4.90
2018-11-03T23:01:30.288Z,4.90
2018-11-03T23:03:58.785Z,4.90
2018-11-03T23:06:27.251Z,4.90
2018-11-03T23:08:55.732Z,4.90
2018-11-03T23:11:24.229Z,4.90
2018-11-03T23:13:52.790Z,4.90
2018-11-03T23:16:21.266Z,4.80
2018-11-03T23:18:49.788Z,4.80
2018-11-03T23:21:18.248Z,4.70
2018-11-03T23:23:46.799Z,4.70
2018-11-03T23:26:15.301Z,4.70
2018-11-03T23:28:43.785Z,4.60
2018-11-03T23:31:12.252Z,4.60
2018-11-03T23:33:40.722Z,4.60
2018-11-03T23:36:09.214Z,4.60
2018-11-03T23:38:37.689Z,4.60
2018-11-03T23:41:06.250Z,4.60
2018-11-03T23:43:34.886Z,4.50
2018-11-03T23:46:03.372Z,4.50
2018-11-03T23:48:31.916Z,4.50
2018-11-03T23:51:00.393Z,4.40
2018-11-03T23:53:28.975Z,4.50
2018-11-03T23:55:57.598Z,4.40
2018-11-03T23:58:26.068Z,4.30
